Skip Navigation Links
NOAA logo - Click to go to the NOAA homepage
NOAA's National Weather Service
Alaska Aviation Weather Unit
  NWS logo - Click to go to the NWS homepage
Left Navbar Graphic     23 AKDT = 07 GMT

   
NOAA is celebrating 200 years of science, service, and stewardship. Visit the NOAA 200th celebration Web site to learn more.
USA.gov is the U.S. Government's official Web portal to all Federal, state and local government Web resources and services.
Facebook
NWS on Facebook

AAWU Home :: Display TAF Add Bookmark
METAR PASO 240153Z AUTO 19006KT 10SM OVC060 08/04 A2964 RMK AO2 SLP038
     T00780039 TSNO=

METAR PASO 240253Z AUTO 19007KT 160V220 10SM BKN050 OVC060 08/03 A2964
     RMK AO2 RAB05E25 SLP036 P0000 60000 T00780033 56008 TSNO=

PASO 240353Z AUTO 18004KT 10SM -RA BKN043 OVC050 07/03 A2963 RMK
     AO2 RAB29 SLP034 P0001 T00670033 TSNO=

METAR PASO 240453Z AUTO 00000KT 10SM -RA OVC043 06/04 A2963 RMK AO2
    SLP033 P0000 T00560039 TSNO=

METAR PASO 240553Z AUTO 00000KT 10SM OVC045 04/03 A2963 RMK AO2 RAE0456
     SLP032 P0000 60001 T00440033 10083 20044 56003 TSNO=

METAR PASO 240653Z AUTO 33003KT 10SM -RA BKN043 OVC055 04/03 A2963 RMK
     AO2 RAB21 SLP033 P0000 T00440033 TSNO=


NOAA's National Weather Service
Alaska Aviation Weather Unit
6930 Sand Lake Road
Anchorage, AK 99502-1845
Disclaimer
Credits
Glossary
Privacy Policy
About Us
Career Opportunities
Contact AAWU Internet Services Site last modified: April, 17th 2012